Time;durP1;ratioP1;P1;durP2;ratioP2;P2;SDS_P1;SDS_P2;PMS_P1;PMS_P2;Temp;Humidity;BMP_temperature;BMP_pressure;BME280_temperature;BME280_humidity;BME280_pressure;Samples;Min_cycle;Max_cycle;Signal;HPM_P1;HPM_P2
2021/12/02 00:00:54;;;;;;;15.05;7.28;;;;;;;-0.28;98.50;99707.19;5053458;28;20036;-64
2021/12/02 00:03:20;;;;;;;12.35;6.70;;;;;;;-0.30;99.20;99703.84;5052717;28;20058;-64
2021/12/02 00:05:46;;;;;;;6.65;5.70;;;;;;;-0.23;99.85;99711.16;5053387;28;20068;-63
2021/12/02 00:08:11;;;;;;;11.93;7.43;;;;;;;-0.11;98.40;99710.19;5037246;28;20030;-65
2021/12/02 00:10:37;;;;;;;26.88;6.90;;;;;;;0.03;97.56;99706.44;5054547;28;20068;-65
2021/12/02 00:13:03;;;;;;;8.25;7.45;;;;;;;0.01;97.61;99698.75;5052928;28;20372;-64
2021/12/02 00:15:38;;;;;;;12.07;8.30;;;;;;;0.04;96.77;99695.88;5053063;28;20060;-63
2021/12/02 00:21:05;;;;;;;10.32;7.43;;;;;;;-0.08;98.02;99691.66;5036563;28;20439;-65
2021/12/02 00:23:49;;;;;;;6.90;5.88;;;;;;;-0.05;98.28;99691.44;5043326;28;20529;-65
2021/12/02 00:26:17;;;;;;;14.95;8.90;;;;;;;-0.09;98.86;99684.78;5054488;28;20060;-66
2021/12/02 00:28:43;;;;;;;11.23;8.57;;;;;;;-0.14;98.75;99685.19;5053599;28;20437;-64
2021/12/02 00:31:17;;;;;;;13.20;7.65;;;;;;;0.02;98.50;99683.91;5052880;28;20060;-65
2021/12/02 00:33:49;;;;;;;12.50;8.52;;;;;;;0.02;98.00;99682.13;5052281;28;20059;-64
2021/12/02 00:36:16;;;;;;;14.27;8.80;;;;;;;-0.03;99.03;99684.28;5039775;28;20037;-64
2021/12/02 00:38:42;;;;;;;15.75;9.75;;;;;;;0.05;98.99;99683.66;5043943;28;20036;-66
2021/12/02 00:41:13;;;;;;;13.82;8.07;;;;;;;0.00;98.35;99678.84;5053023;28;20056;-66
2021/12/02 00:43:39;;;;;;;8.35;7.55;;;;;;;0.05;98.89;99688.88;5051776;28;20029;-66
2021/12/02 00:46:09;;;;;;;10.50;7.28;;;;;;;0.11;98.78;99690.97;5052787;28;20074;-65
2021/12/02 00:48:35;;;;;;;8.98;7.25;;;;;;;0.21;97.84;99695.28;5049275;28;20031;-65
2021/12/02 00:51:02;;;;;;;17.00;8.48;;;;;;;0.23;97.46;99688.16;5044812;28;20074;-65
2021/12/02 00:53:30;;;;;;;7.40;5.70;;;;;;;0.18;96.52;99686.88;5051491;28;20049;-63
2021/12/02 00:55:56;;;;;;;9.05;7.68;;;;;;;0.14;96.83;99683.69;5052564;28;20104;-63
2021/12/02 00:58:23;;;;;;;18.50;5.60;;;;;;;0.27;95.27;99680.91;5054096;28;20112;-64
2021/12/02 01:00:52;;;;;;;9.52;8.05;;;;;;;0.29;95.35;99681.56;5052411;28;20033;-65
2021/12/02 01:03:19;;;;;;;10.85;8.80;;;;;;;0.41;94.49;99696.22;5042024;28;20092;-65
2021/12/02 01:05:45;;;;;;;11.70;7.45;;;;;;;0.38;93.96;99678.22;5046430;28;20100;-66
2021/12/02 01:08:11;;;;;;;12.35;8.30;;;;;;;0.52;94.34;99680.47;5052345;28;20120;-65
2021/12/02 01:10:40;;;;;;;15.18;9.02;;;;;;;0.52;94.20;99674.44;5052263;28;20124;-63
2021/12/02 01:13:05;;;;;;;14.80;8.40;;;;;;;0.52;93.82;99669.22;5051199;28;20021;-64
2021/12/02 01:15:31;;;;;;;13.82;8.38;;;;;;;0.53;93.58;99673.47;5052000;28;20041;-66
2021/12/02 01:17:57;;;;;;;11.93;7.90;;;;;;;0.57;93.71;99667.00;5043558;28;20056;-63
2021/12/02 01:20:22;;;;;;;9.63;7.32;;;;;;;0.55;93.22;99666.31;5040426;28;20067;-65
2021/12/02 01:22:49;;;;;;;14.48;8.77;;;;;;;0.60;93.17;99663.34;5046427;28;20390;-65
2021/12/02 01:25:18;;;;;;;14.43;8.82;;;;;;;0.68;93.26;99655.66;5052152;28;20548;-65
2021/12/02 01:27:47;;;;;;;13.05;9.07;;;;;;;0.57;92.84;99648.75;5051050;28;20368;-66
2021/12/02 01:30:13;;;;;;;12.20;8.02;;;;;;;0.62;93.02;99637.91;5053272;28;20029;-66
2021/12/02 01:32:40;;;;;;;9.02;7.00;;;;;;;0.67;93.16;99639.19;5038797;28;20087;-64
2021/12/02 01:35:06;;;;;;;17.00;9.18;;;;;;;0.76;93.31;99634.94;5048845;28;20108;-65
2021/12/02 01:37:33;;;;;;;10.27;6.93;;;;;;;0.65;93.92;99642.88;5051780;28;20082;-65
2021/12/02 01:40:00;;;;;;;12.25;8.63;;;;;;;0.60;94.35;99652.91;5051712;28;20108;-63
2021/12/02 01:42:28;;;;;;;12.18;7.97;;;;;;;0.58;94.52;99649.56;5051135;28;20013;-67
2021/12/02 01:44:56;;;;;;;11.48;7.93;;;;;;;0.71;94.13;99658.81;5047218;28;20115;-65
2021/12/02 01:47:25;;;;;;;12.63;8.73;;;;;;;0.81;93.59;99651.03;5035300;28;20486;-64
2021/12/02 01:49:55;;;;;;;12.88;7.93;;;;;;;0.79;94.47;99640.69;5049715;28;20119;-65
2021/12/02 01:52:29;;;;;;;8.75;6.88;;;;;;;0.76;93.96;99627.94;5050502;28;20031;-65
2021/12/02 01:55:05;;;;;;;8.57;6.18;;;;;;;0.80;93.95;99637.13;5050596;28;20406;-67
2021/12/02 01:57:33;;;;;;;7.55;6.80;;;;;;;0.80;94.08;99633.69;5034410;28;20486;-64
2021/12/02 02:00:20;;;;;;;12.57;8.45;;;;;;;0.89;93.30;99637.31;5038496;28;20036;-66
2021/12/02 02:02:47;;;;;;;9.27;6.32;;;;;;;0.70;93.68;99640.69;5049319;28;20504;-65
2021/12/02 02:05:15;;;;;;;12.18;8.70;;;;;;;0.80;94.00;99631.09;5052838;28;20409;-64
2021/12/02 02:07:48;;;;;;;13.38;8.38;;;;;;;0.76;93.95;99638.38;5053034;28;20037;-63
2021/12/02 02:10:15;;;;;;;8.23;7.43;;;;;;;0.78;94.25;99633.84;5051113;28;20582;-65
2021/12/02 02:12:41;;;;;;;11.48;7.13;;;;;;;0.93;92.96;99644.72;5050403;28;20262;-62
2021/12/02 02:15:07;;;;;;;12.90;8.45;;;;;;;0.97;92.66;99637.47;5044487;28;20104;-66
2021/12/02 02:17:44;;;;;;;11.93;6.15;;;;;;;0.69;93.77;99634.66;5051012;28;20029;-65
2021/12/02 02:20:12;;;;;;;12.02;6.90;;;;;;;0.64;94.31;99636.00;5052006;28;20037;-63
2021/12/02 02:22:39;;;;;;;8.80;7.03;;;;;;;0.70;93.84;99628.47;5052765;28;20429;-63
2021/12/02 02:25:10;;;;;;;14.57;8.70;;;;;;;0.75;93.79;99618.44;5052483;28;20029;-66
2021/12/02 02:27:36;;;;;;;14.27;8.90;;;;;;;0.64;95.07;99629.00;5051307;28;20123;-66
2021/12/02 02:30:02;;;;;;;10.00;6.93;;;;;;;0.71;94.17;99616.22;5040958;28;20486;-62
2021/12/02 02:32:28;;;;;;;12.05;7.80;;;;;;;0.78;94.31;99612.94;5052850;28;20024;-65
2021/12/02 02:34:53;;;;;;;11.13;7.32;;;;;;;0.72;94.84;99618.69;5052226;28;20500;-64
2021/12/02 02:37:19;;;;;;;12.27;7.88;;;;;;;0.69;95.29;99613.75;5051995;28;20032;-63
2021/12/02 02:39:44;;;;;;;8.20;7.50;;;;;;;0.77;95.29;99620.94;5057516;28;20056;-65
2021/12/02 02:42:10;;;;;;;8.98;7.82;;;;;;;0.94;94.51;99627.25;5048127;28;20487;-65
2021/12/02 02:44:36;;;;;;;12.82;9.57;;;;;;;1.09;94.19;99644.19;5043627;28;20027;-62
2021/12/02 02:47:02;;;;;;;13.05;8.00;;;;;;;1.16;93.59;99649.69;5060526;28;20025;-63
2021/12/02 02:49:28;;;;;;;15.10;8.75;;;;;;;0.93;94.74;99641.28;5062483;28;20017;-64
2021/12/02 02:51:54;;;;;;;19.25;9.13;;;;;;;1.06;95.14;99653.13;5062299;28;20083;-64
2021/12/02 02:54:19;;;;;;;13.02;7.65;;;;;;;1.09;94.90;99649.41;5057731;28;20035;-64
2021/12/02 02:57:00;;;;;;;12.98;9.07;;;;;;;1.26;94.19;99654.00;5043365;28;20105;-64
2021/12/02 03:04:44;;;;;;;14.07;9.63;;;;;;;1.33;94.05;99635.97;5053686;28;20410;-64
2021/12/02 03:07:29;;;;;;;15.38;8.80;;;;;;;1.31;94.07;99636.09;5053450;28;20036;-66
2021/12/02 03:12:43;;;;;;;16.23;9.05;;;;;;;1.46;94.73;99628.66;5050911;28;20044;-63
2021/12/02 03:17:36;;;;;;;14.18;9.07;;;;;;;1.76;92.55;99629.47;5039193;28;20032;-64
2021/12/02 03:20:02;;;;;;;15.13;9.25;;;;;;;2.06;91.28;99628.47;5052502;28;20028;-64
2021/12/02 03:22:28;;;;;;;15.45;9.05;;;;;;;1.86;92.86;99627.66;5053485;28;20028;-62
2021/12/02 03:24:54;;;;;;;13.82;9.38;;;;;;;1.81;92.97;99624.63;5047476;28;20554;-65
2021/12/02 03:27:19;;;;;;;13.65;8.43;;;;;;;1.68;93.51;99611.84;5051220;28;20098;-67
2021/12/02 03:29:45;;;;;;;14.50;8.90;;;;;;;1.72;93.46;99618.47;5054683;28;20056;-64
2021/12/02 03:32:11;;;;;;;11.23;8.40;;;;;;;1.66;94.81;99613.78;5054213;28;20367;-63
2021/12/02 03:34:38;;;;;;;11.68;7.20;;;;;;;2.08;92.33;99616.06;5054241;28;20083;-66
2021/12/02 03:37:04;;;;;;;12.10;8.73;;;;;;;2.22;91.06;99618.22;5052695;28;20071;-64
2021/12/02 03:39:30;;;;;;;14.60;9.05;;;;;;;2.07;92.21;99603.94;5051974;28;20029;-64
2021/12/02 03:41:59;;;;;;;15.50;9.18;;;;;;;2.14;92.77;99612.88;5052788;28;20025;-66
2021/12/02 03:44:25;;;;;;;13.18;9.15;;;;;;;2.39;90.62;99622.66;5054032;28;20457;-64
2021/12/02 03:46:52;;;;;;;15.18;9.52;;;;;;;2.21;92.28;99624.41;5054330;28;20059;-64
2021/12/02 03:49:18;;;;;;;15.05;10.32;;;;;;;2.04;92.77;99627.75;5055054;28;20124;-64
2021/12/02 03:51:43;;;;;;;11.63;8.88;;;;;;;1.64;94.55;99621.78;5046242;28;20449;-64
2021/12/02 03:54:09;;;;;;;10.82;7.47;;;;;;;1.67;95.28;99634.56;5038465;28;20048;-64
2021/12/02 03:56:35;;;;;;;15.90;10.02;;;;;;;1.69;95.51;99641.44;5051032;28;20075;-64
2021/12/02 03:59:01;;;;;;;20.45;9.73;;;;;;;1.60;96.71;99637.88;5053768;28;20116;-64
2021/12/02 04:01:26;;;;;;;14.63;9.68;;;;;;;1.47;97.27;99630.34;5052700;28;20511;-64
2021/12/02 04:03:52;;;;;;;19.10;10.65;;;;;;;1.49;97.29;99630.19;5054964;28;20497;-63
2021/12/02 04:06:19;;;;;;;23.80;11.07;;;;;;;1.41;97.47;99624.84;5053243;28;20033;-65
2021/12/02 04:16:34;;;;;;;18.27;11.20;;;;;;;1.42;97.59;99629.91;5053413;28;20071;-64
2021/12/02 04:19:00;;;;;;;16.60;10.43;;;;;;;1.43;97.82;99631.56;5052947;28;20033;-65
2021/12/02 04:21:25;;;;;;;13.15;9.80;;;;;;;1.42;97.76;99636.94;5047215;28;20034;-64
2021/12/02 04:23:51;;;;;;;16.27;11.25;;;;;;;1.34;98.29;99624.56;5053315;28;20538;-66
2021/12/02 04:26:16;;;;;;;15.32;9.10;;;;;;;1.41;98.58;99627.47;5053464;28;20025;-66
2021/12/02 04:28:42;;;;;;;15.07;8.63;;;;;;;1.44;98.21;99635.81;5053474;28;20103;-63
2021/12/02 04:31:07;;;;;;;13.75;9.80;;;;;;;1.39;98.47;99632.78;5052021;28;20482;-62
2021/12/02 04:33:33;;;;;;;12.45;8.40;;;;;;;1.42;98.75;99635.16;5050485;28;20049;-65
2021/12/02 04:36:00;;;;;;;18.48;9.60;;;;;;;1.52;97.91;99635.13;5041838;28;20061;-63
2021/12/02 04:38:29;;;;;;;14.32;9.52;;;;;;;1.46;98.37;99644.34;5053221;28;20040;-64
2021/12/02 04:40:55;;;;;;;15.50;10.02;;;;;;;1.42;99.44;99629.09;5053111;28;20028;-65
2021/12/02 04:43:20;;;;;;;13.40;9.18;;;;;;;1.54;98.55;99627.97;5052064;28;20025;-66
2021/12/02 04:45:46;;;;;;;21.42;11.40;;;;;;;1.54;98.15;99630.59;5052916;28;20032;-65
2021/12/02 04:48:12;;;;;;;14.52;10.00;;;;;;;1.53;98.73;99631.56;5044874;28;20116;-66
2021/12/02 04:50:37;;;;;;;15.43;10.27;;;;;;;1.48;99.00;99634.59;5037707;28;20025;-64
2021/12/02 04:53:03;;;;;;;15.00;10.60;;;;;;;1.56;99.27;99628.69;5051642;28;20021;-63
2021/12/02 04:55:28;;;;;;;16.50;10.55;;;;;;;1.61;98.87;99629.06;5051478;28;20509;-65
2021/12/02 04:57:54;;;;;;;13.52;10.48;;;;;;;1.63;98.43;99617.53;5052489;28;20112;-67
2021/12/02 05:00:20;;;;;;;23.92;13.25;;;;;;;1.66;98.13;99632.09;5053674;28;20095;-64
2021/12/02 05:02:47;;;;;;;18.85;10.75;;;;;;;1.59;98.49;99625.78;5039920;28;20025;-67
2021/12/02 05:05:13;;;;;;;16.00;10.95;;;;;;;1.56;98.80;99621.66;5052634;28;20029;-63
2021/12/02 05:07:38;;;;;;;21.17;13.52;;;;;;;1.58;99.09;99609.28;5053764;28;20509;-63
2021/12/02 05:10:06;;;;;;;15.88;11.52;;;;;;;1.65;98.50;99612.16;5050666;28;20075;-63
2021/12/02 05:12:32;;;;;;;21.73;12.88;;;;;;;1.91;97.10;99607.97;5033897;28;20459;-64
2021/12/02 05:14:57;;;;;;;24.50;14.02;;;;;;;1.82;98.66;99611.41;5051639;28;20036;-64
2021/12/02 05:17:22;;;;;;;23.58;14.55;;;;;;;1.82;98.39;99626.28;5036134;28;20540;-66
2021/12/02 05:19:48;;;;;;;28.42;13.95;;;;;;;1.81;98.30;99625.47;5052281;28;20033;-63
2021/12/02 05:22:14;;;;;;;26.33;13.60;;;;;;;1.86;98.51;99620.66;5053182;28;20142;-65
2021/12/02 05:24:40;;;;;;;15.35;10.13;;;;;;;1.76;98.92;99622.44;5052385;28;20086;-66
2021/12/02 05:27:06;;;;;;;31.95;12.27;;;;;;;1.83;98.62;99633.97;5051923;28;20116;-64
2021/12/02 05:29:32;;;;;;;9.77;8.10;;;;;;;1.81;99.64;99638.53;5052759;28;20397;-66
2021/12/02 05:31:58;;;;;;;19.98;10.45;;;;;;;1.74;100.00;99628.78;5034604;28;20024;-64
2021/12/02 05:34:24;;;;;;;12.70;10.00;;;;;;;1.75;99.91;99636.47;5051373;28;20094;-65
2021/12/02 05:36:49;;;;;;;20.65;9.60;;;;;;;1.76;99.54;99627.66;5051659;28;20053;-64
2021/12/02 05:39:15;;;;;;;17.55;11.05;;;;;;;1.80;98.93;99636.91;5052274;28;20052;-63
2021/12/02 05:41:40;;;;;;;17.70;10.80;;;;;;;1.68;99.71;99627.53;5052745;28;20021;-66
2021/12/02 05:44:06;;;;;;;18.55;11.98;;;;;;;1.69;99.92;99618.75;5047304;28;20040;-64
2021/12/02 05:46:31;;;;;;;15.48;10.88;;;;;;;1.73;99.77;99620.13;5039346;28;20558;-65
2021/12/02 05:48:57;;;;;;;22.33;9.55;;;;;;;1.82;99.70;99632.34;5051585;28;20494;-64
2021/12/02 05:51:22;;;;;;;24.02;9.65;;;;;;;2.06;98.16;99625.84;5052110;28;20079;-64
2021/12/02 05:53:48;;;;;;;17.25;11.40;;;;;;;2.15;98.48;99630.22;5050285;28;20024;-65
2021/12/02 05:56:13;;;;;;;15.40;11.20;;;;;;;2.02;99.31;99633.13;5051981;28;20029;-64
2021/12/02 05:58:39;;;;;;;25.33;13.45;;;;;;;2.00;99.15;99629.84;5042339;28;20071;-65
2021/12/02 06:01:04;;;;;;;24.20;11.57;;;;;;;2.02;99.89;99632.31;5037001;28;20025;-64
2021/12/02 06:03:31;;;;;;;27.20;12.00;;;;;;;1.87;100.00;99643.22;5051387;28;20079;-65
2021/12/02 06:05:56;;;;;;;26.80;13.18;;;;;;;2.05;100.00;99634.63;5050935;28;20033;-63
2021/12/02 06:08:22;;;;;;;13.32;10.60;;;;;;;2.19;99.90;99626.31;5050333;28;20548;-66
2021/12/02 06:10:47;;;;;;;25.35;11.45;;;;;;;2.55;98.48;99640.38;5052304;28;20048;-65
2021/12/02 06:13:13;;;;;;;23.40;12.48;;;;;;;2.34;98.57;99635.34;5037315;28;20036;-65
2021/12/02 06:15:38;;;;;;;21.40;12.57;;;;;;;2.31;99.07;99629.59;5050139;28;20025;-64
2021/12/02 06:18:04;;;;;;;16.75;11.35;;;;;;;2.51;97.20;99618.09;5052090;28;20048;-64
2021/12/02 06:20:29;;;;;;;21.42;11.15;;;;;;;2.60;96.65;99613.75;5049512;28;20049;-65
2021/12/02 06:22:55;;;;;;;23.73;13.27;;;;;;;2.85;96.53;99615.66;5051739;28;20386;-65
2021/12/02 06:27:50;;;;;;;18.02;10.27;;;;;;;2.61;96.17;99628.50;5043487;28;20033;-65
2021/12/02 06:30:18;;;;;;;24.45;13.48;;;;;;;2.65;96.51;99620.22;5050212;28;20033;-65
2021/12/02 06:32:43;;;;;;;30.45;11.75;;;;;;;2.59;96.22;99610.31;5052013;28;20035;-64
2021/12/02 06:35:10;;;;;;;22.95;14.05;;;;;;;2.84;96.11;99614.03;5049186;28;20029;-67
2021/12/02 06:37:35;;;;;;;24.52;10.60;;;;;;;3.16;93.88;99620.56;5050609;28;20025;-63
2021/12/02 06:40:01;;;;;;;28.58;14.68;;;;;;;3.81;91.29;99616.69;5047284;28;20104;-67
2021/12/02 06:42:27;;;;;;;23.33;13.20;;;;;;;3.48;92.33;99622.66;5047565;28;20025;-65
2021/12/02 06:44:52;;;;;;;31.65;15.23;;;;;;;4.34;90.49;99625.38;5049254;28;20343;-65
2021/12/02 06:47:20;;;;;;;25.10;12.55;;;;;;;4.28;87.22;99631.25;5051032;28;20095;-65
2021/12/02 06:49:45;;;;;;;27.48;13.20;;;;;;;9.55;66.92;99638.47;5050560;28;20025;-65
2021/12/02 06:52:12;;;;;;;24.33;13.27;;;;;;;12.00;55.08;99638.75;5050548;28;20029;-64
2021/12/02 06:54:39;;;;;;;26.67;13.32;;;;;;;10.82;58.82;99645.44;5045023;28;20403;-65
2021/12/02 06:57:05;;;;;;;26.27;13.10;;;;;;;11.70;57.99;99643.63;5046699;28;20098;-66
2021/12/02 06:59:30;;;;;;;29.00;14.05;;;;;;;11.40;56.06;99644.00;5050644;28;20420;-66
2021/12/02 07:01:55;;;;;;;24.73;13.50;;;;;;;10.29;57.99;99638.03;5049534;28;20434;-66
2021/12/02 07:04:21;;;;;;;20.40;13.40;;;;;;;9.42;62.32;99656.84;5050125;28;20021;-65
2021/12/02 07:06:47;;;;;;;40.72;18.17;;;;;;;9.17;63.68;99656.38;5050865;28;20041;-66
2021/12/02 07:09:12;;;;;;;20.17;14.18;;;;;;;8.05;65.44;99650.38;5037702;28;20411;-64
2021/12/02 07:11:38;;;;;;;20.35;13.75;;;;;;;7.57;69.96;99646.38;5047293;28;20029;-66
2021/12/02 07:14:07;;;;;;;23.30;15.20;;;;;;;11.95;55.47;99646.50;5051506;28;20021;-66
2021/12/02 07:16:32;;;;;;;28.30;14.50;;;;;;;12.25;53.21;99642.38;5049288;28;20106;-65
2021/12/02 07:19:02;;;;;;;23.10;13.75;;;;;;;9.55;60.39;99641.09;5050197;28;20501;-66
2021/12/02 07:21:27;;;;;;;30.00;14.05;;;;;;;9.62;62.29;99638.50;5051854;28;20032;-65
2021/12/02 07:23:53;;;;;;;19.30;13.30;;;;;;;6.88;71.58;99630.47;5045224;28;20022;-66
2021/12/02 07:26:18;;;;;;;26.83;13.23;;;;;;;6.61;74.21;99634.38;5046895;28;20040;-66
2021/12/02 07:28:45;;;;;;;43.90;16.42;;;;;;;7.19;73.39;99625.16;5049364;28;20024;-66
2021/12/02 07:31:12;;;;;;;45.45;19.00;;;;;;;6.74;74.38;99639.09;5050273;28;20025;-64
2021/12/02 07:33:39;;;;;;;43.97;18.75;;;;;;;6.41;76.44;99627.88;5053072;28;20060;-65
2021/12/02 07:36:05;;;;;;;36.72;18.02;;;;;;;6.19;77.07;99626.78;5052838;28;20021;-66
2021/12/02 07:38:32;;;;;;;37.42;17.35;;;;;;;6.08;77.63;99628.78;5052623;28;20385;-64
2021/12/02 07:41:05;;;;;;;33.03;15.20;;;;;;;5.13;83.03;99637.28;5050764;28;20029;-65
2021/12/02 07:43:35;;;;;;;25.73;15.23;;;;;;;4.95;84.43;99635.63;5053979;28;20051;-64
2021/12/02 07:46:02;;;;;;;36.95;14.40;;;;;;;5.27;82.71;99620.88;5053618;28;20390;-63
2021/12/02 07:48:28;;;;;;;26.48;14.13;;;;;;;4.88;84.01;99615.41;5054367;28;20098;-65
2021/12/02 07:51:04;;;;;;;24.92;14.45;;;;;;;4.62;86.42;99611.03;5053805;28;20029;-65
2021/12/02 07:53:31;;;;;;;28.00;15.20;;;;;;;4.62;86.92;99618.09;5036963;28;20112;-65
2021/12/02 07:56:03;;;;;;;24.60;13.95;;;;;;;4.66;86.87;99625.50;5053995;28;20379;-64
2021/12/02 07:58:29;;;;;;;17.75;10.25;;;;;;;4.46;87.76;99616.22;5053965;28;20087;-64
2021/12/02 08:00:59;;;;;;;37.47;15.45;;;;;;;5.03;84.53;99626.09;5052694;28;20095;-65
2021/12/02 08:03:26;;;;;;;24.60;12.65;;;;;;;5.88;78.27;99621.38;5054011;28;20029;-66
2021/12/02 08:05:52;;;;;;;23.70;11.48;;;;;;;6.32;75.04;99627.09;5051987;28;20033;-65
2021/12/02 08:08:18;;;;;;;22.95;12.35;;;;;;;6.58;73.98;99629.44;5041642;28;20423;-64
2021/12/02 08:10:44;;;;;;;22.67;10.63;;;;;;;6.74;72.15;99631.19;5053204;28;20087;-65
2021/12/02 08:13:10;;;;;;;19.27;10.35;;;;;;;6.82;71.74;99637.25;5053957;28;20021;-67
2021/12/02 08:15:35;;;;;;;20.33;10.40;;;;;;;6.93;70.75;99631.59;5053148;28;20029;-66
2021/12/02 08:18:01;;;;;;;13.50;10.13;;;;;;;7.13;70.39;99634.63;5052230;28;20068;-64
2021/12/02 08:20:28;;;;;;;18.23;12.18;;;;;;;7.19;70.69;99633.91;5037218;28;20030;-66
2021/12/02 08:22:53;;;;;;;22.10;11.50;;;;;;;7.37;69.47;99640.72;5034546;28;20399;-64
2021/12/02 08:25:20;;;;;;;23.85;11.82;;;;;;;7.45;68.23;99649.41;5035708;28;20026;-67
2021/12/02 08:27:47;;;;;;;29.08;11.57;;;;;;;7.57;68.45;99641.09;5053370;28;20097;-66
2021/12/02 08:30:15;;;;;;;15.90;10.13;;;;;;;7.50;69.09;99648.06;5053650;28;20479;-65
2021/12/02 08:32:43;;;;;;;22.35;12.70;;;;;;;7.15;71.95;99640.53;5052332;28;20033;-66
2021/12/02 08:35:10;;;;;;;27.05;12.77;;;;;;;6.83;73.86;99638.91;5041860;28;20036;-65
2021/12/02 08:37:42;;;;;;;20.75;10.27;;;;;;;7.65;68.04;99641.84;5035178;28;20032;-64
2021/12/02 08:40:09;;;;;;;20.80;10.95;;;;;;;7.84;67.20;99634.41;5036593;28;20051;-64
2021/12/02 08:42:35;;;;;;;24.77;12.48;;;;;;;7.87;67.59;99626.97;5052153;28;20036;-63
2021/12/02 08:45:01;;;;;;;22.42;12.05;;;;;;;8.03;65.77;99620.72;5052030;28;20017;-64
2021/12/02 08:47:28;;;;;;;18.13;11.15;;;;;;;8.16;66.03;99618.25;5052641;28;20029;-64
2021/12/02 08:49:54;;;;;;;22.48;12.30;;;;;;;8.39;66.64;99623.50;5036239;28;20025;-65
2021/12/02 08:52:22;;;;;;;28.20;12.05;;;;;;;8.28;66.18;99618.63;5052477;28;20033;-64
2021/12/02 08:54:49;;;;;;;28.98;13.43;;;;;;;8.48;64.86;99614.47;5051319;28;20025;-64
2021/12/02 08:57:19;;;;;;;21.75;12.30;;;;;;;8.78;64.23;99617.06;5051274;28;20455;-65
2021/12/02 08:59:45;;;;;;;34.38;13.00;;;;;;;8.70;64.15;99617.19;5053668;28;20017;-65
2021/12/02 09:02:12;;;;;;;39.03;15.77;;;;;;;8.90;64.12;99615.59;5051954;28;20021;-64
2021/12/02 09:04:38;;;;;;;26.42;13.68;;;;;;;8.98;64.56;99607.53;5041155;28;20021;-64
2021/12/02 09:07:04;;;;;;;27.95;13.10;;;;;;;8.99;63.78;99600.41;5052134;28;20422;-65
2021/12/02 09:09:30;;;;;;;18.58;10.38;;;;;;;9.36;61.96;99596.72;5052519;28;20044;-65
2021/12/02 09:11:57;;;;;;;10.63;8.48;;;;;;;9.63;59.90;99605.72;5053258;28;20025;-66
2021/12/02 09:14:23;;;;;;;10.57;8.88;;;;;;;9.72;57.99;99578.09;5053509;28;20039;-64
2021/12/02 09:16:50;;;;;;;16.33;8.63;;;;;;;9.86;57.83;99586.97;5047048;28;20040;-63
2021/12/02 09:19:16;;;;;;;15.05;9.93;;;;;;;9.90;57.52;99577.59;5052292;28;20101;-64
2021/12/02 09:21:42;;;;;;;13.20;8.48;;;;;;;10.00;57.41;99580.75;5050996;28;20060;-64
2021/12/02 09:24:07;;;;;;;14.32;7.82;;;;;;;10.11;56.38;99577.53;5050086;28;20467;-64
2021/12/02 09:26:33;;;;;;;10.07;7.40;;;;;;;10.31;55.95;99579.53;5035905;28;20543;-65
2021/12/02 09:28:59;;;;;;;13.07;8.63;;;;;;;10.41;55.62;99577.31;5051708;28;20048;-65
2021/12/02 09:31:24;;;;;;;17.48;7.57;;;;;;;10.34;55.35;99579.94;5042275;28;20079;-66
2021/12/02 09:33:50;;;;;;;13.93;7.55;;;;;;;10.51;54.96;99583.91;5050736;28;20018;-63
2021/12/02 09:36:17;;;;;;;15.98;7.90;;;;;;;10.53;54.87;99583.72;5051742;28;20387;-65
2021/12/02 09:38:43;;;;;;;15.30;8.13;;;;;;;10.71;54.80;99594.59;5050784;28;20096;-65
2021/12/02 09:41:08;;;;;;;11.15;8.77;;;;;;;10.78;54.65;99594.59;5050600;28;20111;-65
2021/12/02 09:43:34;;;;;;;19.75;9.13;;;;;;;10.83;54.32;99601.97;5049962;28;20543;-65
2021/12/02 09:46:00;;;;;;;13.20;8.30;;;;;;;10.82;54.10;99600.34;5038280;28;20021;-64
2021/12/02 09:48:28;;;;;;;18.00;7.72;;;;;;;10.79;53.95;99599.72;5051646;28;20475;-64
2021/12/02 09:51:03;;;;;;;12.40;8.30;;;;;;;10.81;53.43;99602.19;5052816;28;20467;-65
2021/12/02 09:53:34;;;;;;;11.23;8.38;;;;;;;10.90;53.17;99600.16;5051504;28;20074;-64
2021/12/02 09:56:35;;;;;;;11.95;8.05;;;;;;;10.86;52.84;99593.63;5050375;28;20024;-65
2021/12/02 09:58:55;;;;;;;14.05;9.10;;;;;;;10.94;52.66;99593.44;5043727;28;20060;-66
2021/12/02 10:01:23;;;;;;;14.55;8.70;;;;;;;10.98;52.26;99587.53;5040423;28;20123;-65
2021/12/02 10:03:53;;;;;;;12.30;8.68;;;;;;;11.04;52.07;99577.97;5050120;28;20404;-64
2021/12/02 10:06:27;;;;;;;16.25;9.07;;;;;;;11.07;51.77;99567.75;5049763;28;20082;-65
2021/12/02 10:11:27;;;;;;;15.40;9.05;;;;;;;11.18;51.77;99568.19;5051022;28;20066;-65
2021/12/02 10:14:02;;;;;;;14.63;9.00;;;;;;;11.08;51.94;99558.75;5049243;28;20029;-66
2021/12/02 10:16:31;;;;;;;16.95;9.85;;;;;;;11.19;52.02;99556.56;5049770;28;20104;-65
2021/12/02 10:21:56;;;;;;;20.98;8.30;;;;;;;11.24;51.44;99557.59;5052352;28;20048;-63
2021/12/02 10:24:26;;;;;;;9.25;6.90;;;;;;;11.29;49.71;99563.09;5052009;28;20518;-65
2021/12/02 10:26:59;;;;;;;9.80;7.13;;;;;;;11.32;49.40;99546.75;5049503;28;20031;-65
2021/12/02 10:29:36;;;;;;;16.65;6.57;;;;;;;11.34;49.74;99552.69;5033389;28;20057;-65
2021/12/02 10:32:09;;;;;;;13.15;6.32;;;;;;;11.38;49.19;99545.09;5032721;28;20440;-66
2021/12/02 10:34:56;;;;;;;9.48;6.60;;;;;;;11.35;48.86;99546.34;5051039;28;20372;-65
2021/12/02 10:37:27;;;;;;;6.70;6.20;;;;;;;11.34;48.72;99550.03;5050484;28;20024;-64
2021/12/02 10:39:56;;;;;;;11.77;7.15;;;;;;;11.37;48.65;99546.13;5052099;28;20117;-65
2021/12/02 10:42:23;;;;;;;11.48;6.80;;;;;;;11.31;48.82;99542.47;5039628;28;20024;-64
2021/12/02 10:44:49;;;;;;;9.07;6.13;;;;;;;11.38;48.56;99538.97;5052109;28;20025;-65
2021/12/02 10:47:16;;;;;;;10.50;7.53;;;;;;;11.36;48.62;99528.56;5045388;28;20083;-65
2021/12/02 10:49:50;;;;;;;10.35;6.85;;;;;;;11.33;48.23;99527.16;5038894;28;20505;-67
2021/12/02 10:52:27;;;;;;;7.45;6.40;;;;;;;11.30;48.49;99522.22;5049641;28;20372;-66
2021/12/02 10:55:03;;;;;;;7.68;6.85;;;;;;;11.31;48.55;99520.41;5049547;28;20025;-65
2021/12/02 10:57:31;;;;;;;9.55;6.85;;;;;;;11.29;48.50;99546.34;5044198;28;20201;-64
2021/12/02 10:59:59;;;;;;;7.80;6.72;;;;;;;11.28;48.49;99545.53;5050715;28;20025;-64
2021/12/02 11:02:36;;;;;;;8.85;7.28;;;;;;;11.32;48.84;99535.31;5049447;28;20025;-65
2021/12/02 11:05:06;;;;;;;8.57;7.75;;;;;;;11.24;48.41;99533.69;5049021;28;20033;-67
2021/12/02 11:07:39;;;;;;;8.93;6.82;;;;;;;11.31;48.62;99528.34;5050634;28;20115;-64
2021/12/02 11:10:08;;;;;;;8.02;7.07;;;;;;;11.28;48.47;99516.31;5048780;28;20114;-66
2021/12/02 11:12:37;;;;;;;10.18;6.60;;;;;;;11.24;48.51;99524.91;5050234;28;20391;-66
2021/12/02 11:15:17;;;;;;;9.55;7.00;;;;;;;11.26;48.55;99526.34;5053323;28;20031;-66
2021/12/02 11:17:54;;;;;;;8.95;7.35;;;;;;;11.22;48.84;99503.84;5052903;28;20036;-66
2021/12/02 11:20:59;;;;;;;7.85;7.03;;;;;;;11.15;48.86;99492.41;5053036;28;20064;-65
2021/12/02 11:23:29;;;;;;;8.57;7.45;;;;;;;11.14;48.71;99479.34;5051658;28;20095;-66
2021/12/02 11:26:11;;;;;;;7.40;6.80;;;;;;;11.17;48.72;99489.59;5039709;28;20044;-64
2021/12/02 11:28:42;;;;;;;7.65;6.95;;;;;;;11.22;48.60;99487.13;5052906;28;20501;-66
2021/12/02 11:31:09;;;;;;;11.18;7.68;;;;;;;11.20;48.78;99481.19;5053913;28;20047;-65
2021/12/02 11:33:37;;;;;;;8.10;7.28;;;;;;;11.19;48.78;99477.72;5053709;28;20494;-64
2021/12/02 11:36:05;;;;;;;7.38;6.85;;;;;;;11.18;48.70;99481.41;5048281;28;20048;-64
2021/12/02 11:38:32;;;;;;;7.88;7.15;;;;;;;11.19;48.60;99477.72;5050412;28;20028;-64
2021/12/02 11:41:03;;;;;;;7.47;6.70;;;;;;;11.18;48.60;99486.72;5054191;28;20392;-65
2021/12/02 11:43:37;;;;;;;14.15;8.40;;;;;;;11.16;48.62;99487.91;5052692;28;20025;-65
2021/12/02 11:46:05;;;;;;;16.83;7.68;;;;;;;11.18;48.38;99485.91;5053600;28;20493;-66
2021/12/02 11:48:34;;;;;;;8.43;7.55;;;;;;;11.18;48.49;99494.69;5052459;28;20508;-65
2021/12/02 11:51:06;;;;;;;13.02;7.82;;;;;;;11.11;48.58;99491.19;5049138;28;20075;-65
2021/12/02 11:53:32;;;;;;;15.32;8.90;;;;;;;11.10;48.57;99488.75;5045366;28;20044;-65
2021/12/02 11:56:08;;;;;;;10.55;7.70;;;;;;;11.14;49.02;99500.59;5053534;28;20470;-65
2021/12/02 11:58:34;;;;;;;10.23;6.90;;;;;;;11.13;48.54;99489.16;5054401;28;20029;-66
2021/12/02 12:00:59;;;;;;;8.65;7.75;;;;;;;11.18;48.73;99492.03;5053509;28;20432;-65